createdAt,value
2019-05-28T03:15:15.931Z,12.30
2019-05-28T03:17:47.031Z,12.20
2019-05-28T03:20:16.119Z,12.20
2019-05-28T03:22:46.922Z,12.20
2019-05-28T03:25:15.939Z,12.20
2019-05-28T03:27:44.951Z,12.20
2019-05-28T03:30:14.500Z,12.20
2019-05-28T03:32:43.718Z,12.20
2019-05-28T03:35:12.947Z,12.20
2019-05-28T03:37:44.239Z,12.20
2019-05-28T03:40:16.671Z,12.20
2019-05-28T03:42:45.595Z,12.20
2019-05-28T03:45:17.435Z,12.20
2019-05-28T03:47:46.455Z,12.30
2019-05-28T03:50:15.718Z,12.20
2019-05-28T03:52:44.700Z,12.20
2019-05-28T03:55:16.636Z,12.30
2019-05-28T03:57:45.703Z,12.30
2019-05-28T04:00:15.406Z,12.30
2019-05-28T04:02:44.462Z,12.30
2019-05-28T04:05:13.530Z,12.30
2019-05-28T04:07:42.467Z,12.30
2019-05-28T04:10:11.528Z,12.30
2019-05-28T04:12:40.472Z,12.30
2019-05-28T04:15:09.638Z,12.30
2019-05-28T04:17:38.698Z,12.30
2019-05-28T04:20:07.708Z,12.40
2019-05-28T04:22:36.889Z,12.40
2019-05-28T04:25:06.307Z,12.40
2019-05-28T04:27:35.306Z,12.40
2019-05-28T04:30:04.990Z,12.40
2019-05-28T04:32:40.453Z,12.40
2019-05-28T04:35:05.007Z,12.40
2019-05-28T04:37:34.004Z,12.40
2019-05-28T04:40:03.090Z,12.40
2019-05-28T04:42:32.102Z,12.40
2019-05-28T04:45:01.194Z,12.40
2019-05-28T04:47:30.207Z,12.40
2019-05-28T04:49:59.247Z,12.50
2019-05-28T04:52:30.727Z,12.50
2019-05-28T04:54:59.225Z,12.50
2019-05-28T04:57:28.313Z,12.50
2019-05-28T04:59:57.392Z,12.50
2019-05-28T05:02:26.533Z,12.50
2019-05-28T05:04:55.643Z,12.50
2019-05-28T05:07:24.709Z,12.60
2019-05-28T05:09:53.671Z,12.70
2019-05-28T05:12:22.605Z,12.80
2019-05-28T05:14:52.297Z,12.70
2019-05-28T05:17:22.024Z,12.70
2019-05-28T05:19:51.102Z,12.70
2019-05-28T05:22:20.252Z,12.60
2019-05-28T05:24:49.342Z,12.60
2019-05-28T05:27:18.508Z,12.60
2019-05-28T05:29:47.653Z,12.60
2019-05-28T05:32:16.726Z,12.60
2019-05-28T05:34:45.800Z,12.60
2019-05-28T05:37:14.925Z,12.60
2019-05-28T05:39:48.928Z,12.50
2019-05-28T05:42:17.970Z,12.50
2019-05-28T05:44:47.160Z,12.60
2019-05-28T05:47:18.219Z,12.60
2019-05-28T05:49:47.351Z,12.60
2019-05-28T05:52:16.447Z,12.60
2019-05-28T05:54:45.560Z,12.60
2019-05-28T05:57:14.644Z,12.60
2019-05-28T05:59:43.744Z,12.70
2019-05-28T06:02:12.816Z,12.80
2019-05-28T06:04:42.012Z,12.80
2019-05-28T06:07:30.292Z,12.90
2019-05-28T06:09:59.286Z,13.00
2019-05-28T06:12:28.371Z,13.10
2019-05-28T06:14:57.379Z,13.10
2019-05-28T06:17:26.584Z,13.10
2019-05-28T06:19:55.663Z,13.20
2019-05-28T06:22:24.770Z,13.20
2019-05-28T06:24:53.782Z,13.20
2019-05-28T06:27:22.849Z,13.30
2019-05-28T06:29:51.948Z,13.30
2019-05-28T06:32:20.977Z,13.30
2019-05-28T06:34:49.894Z,13.50
2019-05-28T06:37:19.067Z,13.50
2019-05-28T06:39:48.094Z,13.60
2019-05-28T06:42:17.142Z,13.50
2019-05-28T06:44:46.201Z,13.50
2019-05-28T06:47:15.243Z,13.40
2019-05-28T06:49:44.431Z,13.30
2019-05-28T06:52:13.491Z,13.40
2019-05-28T06:54:42.576Z,13.30
2019-05-28T06:57:22.409Z,13.30
2019-05-28T06:59:42.725Z,13.20
2019-05-28T07:02:11.787Z,13.30
2019-05-28T07:04:40.933Z,13.20
2019-05-28T07:07:09.919Z,13.20
2019-05-28T07:09:38.988Z,13.20
2019-05-28T07:12:08.183Z,13.20
2019-05-28T07:14:37.112Z,13.30
2019-05-28T07:17:06.154Z,13.40
2019-05-28T07:19:35.134Z,13.60
2019-05-28T07:22:04.285Z,13.70
2019-05-28T07:24:33.355Z,13.90
2019-05-28T07:27:02.567Z,14.00
2019-05-28T07:29:31.552Z,14.20
2019-05-28T07:32:00.628Z,14.20
2019-05-28T07:34:31.479Z,14.20
2019-05-28T07:37:00.787Z,14.20
2019-05-28T07:39:29.859Z,14.20
2019-05-28T07:41:58.871Z,14.20
2019-05-28T07:44:27.961Z,14.20
2019-05-28T07:46:57.024Z,14.20
2019-05-28T07:49:26.051Z,14.30
2019-05-28T07:51:55.197Z,14.50
2019-05-28T07:54:24.384Z,14.60
2019-05-28T07:56:53.424Z,14.70
2019-05-28T07:59:22.494Z,14.80
2019-05-28T08:01:51.590Z,15.00
2019-05-28T08:04:20.878Z,15.00
2019-05-28T08:06:54.781Z,15.10
2019-05-28T08:09:20.735Z,15.20
2019-05-28T08:11:49.844Z,15.20
2019-05-28T08:14:18.902Z,15.20
2019-05-28T08:16:52.869Z,15.00
2019-05-28T08:19:18.735Z,14.80
2019-05-28T08:21:47.799Z,14.70
2019-05-28T08:24:16.870Z,14.60
2019-05-28T08:26:45.867Z,14.30
2019-05-28T08:29:14.967Z,14.10
2019-05-28T08:31:44.117Z,13.90
2019-05-28T08:34:13.286Z,13.80
2019-05-28T08:36:42.428Z,13.70
2019-05-28T08:39:11.523Z,13.70
2019-05-28T08:41:40.586Z,13.70
2019-05-28T08:44:09.663Z,13.70
2019-05-28T08:46:38.659Z,13.70
2019-05-28T08:49:07.808Z,13.60
2019-05-28T08:51:36.899Z,13.60
2019-05-28T08:54:06.085Z,13.70
2019-05-28T08:56:35.141Z,13.80
2019-05-28T08:59:04.209Z,13.90
2019-05-28T09:01:33.259Z,13.90
2019-05-28T09:04:02.324Z,13.90
2019-05-28T09:06:31.343Z,13.80
2019-05-28T09:09:00.275Z,13.80
2019-05-28T09:11:29.277Z,13.70
2019-05-28T09:13:58.425Z,13.60
2019-05-28T09:16:27.355Z,13.50
2019-05-28T09:18:56.533Z,13.50
2019-05-28T09:21:25.547Z,13.30
2019-05-28T09:23:54.715Z,13.40
2019-05-28T09:26:23.689Z,13.40
2019-05-28T09:28:52.812Z,13.50
2019-05-28T09:31:21.973Z,13.60
2019-05-28T09:33:50.906Z,13.70
2019-05-28T09:36:20.032Z,13.80
2019-05-28T09:38:49.070Z,13.80
2019-05-28T09:41:18.100Z,14.00
2019-05-28T09:43:47.255Z,14.00
2019-05-28T09:46:16.317Z,13.90
2019-05-28T09:48:45.445Z,14.10
2019-05-28T09:51:14.630Z,14.10
2019-05-28T09:53:43.560Z,14.20
2019-05-28T09:56:12.571Z,14.20
2019-05-28T09:58:41.696Z,14.20
2019-05-28T10:01:10.715Z,14.20
2019-05-28T10:03:39.860Z,14.20
2019-05-28T10:06:16.907Z,14.20
2019-05-28T10:08:39.667Z,14.20
2019-05-28T10:11:08.663Z,14.10
2019-05-28T10:13:40.930Z,14.00
2019-05-28T10:16:08.552Z,13.90
2019-05-28T10:18:37.640Z,13.90
2019-05-28T10:21:17.678Z,13.80
2019-05-28T10:23:37.487Z,13.70
2019-05-28T10:26:06.617Z,13.70
2019-05-28T10:28:35.684Z,13.70
2019-05-28T10:31:05.076Z,13.70
2019-05-28T10:33:34.170Z,13.80
2019-05-28T10:36:03.268Z,13.90
2019-05-28T10:38:32.346Z,13.80
2019-05-28T10:41:01.432Z,13.80
2019-05-28T10:43:30.488Z,13.80
2019-05-28T10:45:59.748Z,13.70
2019-05-28T10:48:28.809Z,13.70
2019-05-28T10:50:57.807Z,13.70
2019-05-28T10:53:26.819Z,13.80
2019-05-28T10:55:55.918Z,13.90
2019-05-28T10:58:24.923Z,14.00
2019-05-28T11:00:54.042Z,14.10
2019-05-28T11:03:23.137Z,14.20
2019-05-28T11:05:52.208Z,14.20
2019-05-28T11:08:21.314Z,14.20
2019-05-28T11:10:50.392Z,14.20
2019-05-28T11:13:19.314Z,14.20
2019-05-28T11:15:48.372Z,14.10
2019-05-28T11:18:17.405Z,14.10
2019-05-28T11:20:46.457Z,14.10
2019-05-28T11:23:16.398Z,14.10
2019-05-28T11:25:45.554Z,14.00
2019-05-28T11:28:14.644Z,14.10
2019-05-28T11:30:43.726Z,14.10
2019-05-28T11:33:12.815Z,14.20
2019-05-28T11:35:41.891Z,14.40
2019-05-28T11:38:11.033Z,14.30
2019-05-28T11:40:40.091Z,14.20
2019-05-28T11:43:09.184Z,14.10
2019-05-28T11:45:38.307Z,14.20
2019-05-28T11:48:07.631Z,14.30
2019-05-28T11:50:36.759Z,14.30
2019-05-28T11:53:05.892Z,14.40
2019-05-28T11:55:35.158Z,14.50
2019-05-28T11:58:04.339Z,14.40
2019-05-28T12:00:33.639Z,14.30
2019-05-28T12:03:02.737Z,14.40
2019-05-28T12:05:31.873Z,14.40
2019-05-28T12:08:01.140Z,14.40
2019-05-28T12:10:30.383Z,14.20
2019-05-28T12:12:59.533Z,14.20
2019-05-28T12:15:28.727Z,14.20
2019-05-28T12:17:57.919Z,14.20
2019-05-28T12:20:27.867Z,14.20
2019-05-28T12:23:10.473Z,14.30
2019-05-28T12:25:27.693Z,14.40
2019-05-28T12:27:57.299Z,14.50
2019-05-28T12:30:26.524Z,14.60
2019-05-28T12:32:55.558Z,14.60
2019-05-28T12:35:29.044Z,14.60
2019-05-28T12:37:55.345Z,14.60
2019-05-28T12:40:24.420Z,14.50
2019-05-28T12:42:53.479Z,14.80
2019-05-28T12:45:35.101Z,15.20
2019-05-28T12:48:09.965Z,15.50
2019-05-28T12:50:26.635Z,15.50
2019-05-28T12:52:55.711Z,15.70
2019-05-28T12:55:25.160Z,15.60
2019-05-28T12:57:54.254Z,15.50
2019-05-28T13:00:24.048Z,15.40
2019-05-28T13:02:53.074Z,15.40
2019-05-28T13:05:24.452Z,15.30
2019-05-28T13:08:07.303Z,15.50
2019-05-28T13:10:24.440Z,15.60
2019-05-28T13:12:53.389Z,15.60
2019-05-28T13:15:22.653Z,15.40
2019-05-28T13:17:52.105Z,15.40
2019-05-28T13:20:21.405Z,15.20
2019-05-28T13:22:50.560Z,14.80
2019-05-28T13:25:19.778Z,14.30
2019-05-28T13:27:48.859Z,14.00
2019-05-28T13:30:18.582Z,13.60
2019-05-28T13:32:47.831Z,13.10
2019-05-28T13:35:18.829Z,12.90
2019-05-28T13:37:48.043Z,12.60
2019-05-28T13:40:17.380Z,12.30
2019-05-28T13:42:46.498Z,12.20
2019-05-28T13:45:15.950Z,12.10
2019-05-28T13:47:44.939Z,12.20
2019-05-28T13:50:14.827Z,12.20
2019-05-28T13:52:44.113Z,12.30
2019-05-28T13:55:13.465Z,12.30
2019-05-28T13:57:42.624Z,12.40
2019-05-28T14:00:12.761Z,12.50
2019-05-28T14:02:46.041Z,12.60
2019-05-28T14:05:13.187Z,12.60
2019-05-28T14:07:42.362Z,12.60
2019-05-28T14:10:12.139Z,12.60
2019-05-28T14:12:41.420Z,12.60
2019-05-28T14:15:12.285Z,12.80
2019-05-28T14:17:41.362Z,12.80
2019-05-28T14:20:11.323Z,12.80
2019-05-28T14:22:40.402Z,12.80
2019-05-28T14:25:09.942Z,12.80
2019-05-28T14:27:39.067Z,12.80
2019-05-28T14:30:08.754Z,12.90
2019-05-28T14:32:37.811Z,13.00
2019-05-28T14:35:07.688Z,13.10
2019-05-28T14:37:36.823Z,13.10
2019-05-28T14:40:07.392Z,13.10
2019-05-28T14:42:36.500Z,13.20
2019-05-28T14:45:06.581Z,13.30
2019-05-28T14:47:35.712Z,13.40
2019-05-28T14:50:06.324Z,13.40
2019-05-28T14:52:35.421Z,13.50
2019-05-28T14:55:04.995Z,13.50
2019-05-28T14:57:34.108Z,13.60
2019-05-28T15:00:04.117Z,13.60
2019-05-28T15:02:33.513Z,13.50
2019-05-28T15:05:02.521Z,13.50
2019-05-28T15:07:31.459Z,13.60
2019-05-28T15:10:01.091Z,13.60
2019-05-28T15:12:30.255Z,13.80
2019-05-28T15:14:59.736Z,13.80
2019-05-28T15:17:29.691Z,13.80
2019-05-28T15:20:00.048Z,13.70
2019-05-28T15:22:29.226Z,13.70
2019-05-28T15:24:58.271Z,13.70
2019-05-28T15:27:27.811Z,13.70
2019-05-28T15:29:56.990Z,13.70
2019-05-28T15:32:26.052Z,13.70
2019-05-28T15:34:55.328Z,13.70
2019-05-28T15:37:24.488Z,13.60
2019-05-28T15:39:56.793Z,13.50
2019-05-28T15:42:26.507Z,13.50
2019-05-28T15:44:57.722Z,13.30
2019-05-28T15:47:27.263Z,13.30
2019-05-28T15:49:56.282Z,13.30
2019-05-28T15:52:25.321Z,13.30
2019-05-28T15:54:54.739Z,13.20
2019-05-28T15:57:23.899Z,13.20
2019-05-28T15:59:53.003Z,13.20
2019-05-28T16:02:22.285Z,13.10
2019-05-28T16:04:54.044Z,13.10
2019-05-28T16:07:22.934Z,13.10
2019-05-28T16:09:55.997Z,13.20
2019-05-28T16:12:22.999Z,13.20
2019-05-28T16:14:51.895Z,13.20
2019-05-28T16:17:20.913Z,13.20
2019-05-28T16:19:50.519Z,13.20
2019-05-28T16:22:21.139Z,13.20
2019-05-28T16:24:50.780Z,13.20
2019-05-28T16:27:19.789Z,13.20
2019-05-28T16:29:48.904Z,13.20
2019-05-28T16:32:18.052Z,13.30
2019-05-28T16:34:47.095Z,13.20
2019-05-28T16:37:16.105Z,13.30
2019-05-28T16:39:47.402Z,13.30
2019-05-28T16:42:16.294Z,13.30
2019-05-28T16:44:45.278Z,13.30
2019-05-28T16:47:18.592Z,13.30
2019-05-28T16:49:45.058Z,13.30
2019-05-28T16:52:14.181Z,13.20
2019-05-28T16:54:43.160Z,13.30
2019-05-28T16:57:12.219Z,13.30
2019-05-28T16:59:41.221Z,13.40
2019-05-28T17:02:10.291Z,13.40
2019-05-28T17:04:39.488Z,13.50
2019-05-28T17:07:08.549Z,13.40
2019-05-28T17:09:37.547Z,13.40
2019-05-28T17:12:06.742Z,13.30
2019-05-28T17:14:35.827Z,13.30
2019-05-28T17:17:04.923Z,13.30
2019-05-28T17:19:34.017Z,13.40
2019-05-28T17:22:03.049Z,13.40
2019-05-28T17:24:32.063Z,13.40
2019-05-28T17:27:00.996Z,13.40
2019-05-28T17:29:29.935Z,13.40
2019-05-28T17:31:59.068Z,13.40
2019-05-28T17:34:28.022Z,13.40
2019-05-28T17:36:57.018Z,13.40
2019-05-28T17:39:25.951Z,13.30
2019-05-28T17:41:55.008Z,13.00
2019-05-28T17:44:24.003Z,12.80
2019-05-28T17:46:53.017Z,12.80
2019-05-28T17:49:22.015Z,12.60
2019-05-28T17:51:51.117Z,12.50
2019-05-28T17:54:20.323Z,12.40
2019-05-28T17:56:49.593Z,12.50
2019-05-28T17:59:19.261Z,12.50
2019-05-28T18:01:48.176Z,12.50
2019-05-28T18:04:17.165Z,12.50
2019-05-28T18:06:46.393Z,12.40
2019-05-28T18:09:15.403Z,12.30
2019-05-28T18:11:44.471Z,12.20
2019-05-28T18:14:13.508Z,12.20
2019-05-28T18:16:42.531Z,12.20
2019-05-28T18:19:11.544Z,12.20
2019-05-28T18:21:40.566Z,12.10
2019-05-28T18:24:09.656Z,12.00
2019-05-28T18:26:38.777Z,11.90
2019-05-28T18:29:07.944Z,11.90
2019-05-28T18:31:37.042Z,11.90
2019-05-28T18:34:06.111Z,11.80
2019-05-28T18:36:35.270Z,11.80
2019-05-28T18:39:05.755Z,11.70
2019-05-28T18:41:34.768Z,11.70
2019-05-28T18:44:03.933Z,11.70
2019-05-28T18:46:32.998Z,11.60
2019-05-28T18:49:02.242Z,11.60
2019-05-28T18:51:31.402Z,11.60
2019-05-28T18:54:00.574Z,11.60
2019-05-28T18:56:29.670Z,11.60
2019-05-28T18:58:58.727Z,11.40
2019-05-28T19:01:27.800Z,11.50
2019-05-28T19:03:58.011Z,11.50
2019-05-28T19:06:27.171Z,11.50
2019-05-28T19:08:56.288Z,11.60
2019-05-28T19:11:37.240Z,11.50
2019-05-28T19:13:56.262Z,11.50
2019-05-28T19:16:25.221Z,11.50
2019-05-28T19:18:55.382Z,11.50
2019-05-28T19:21:24.647Z,11.50
2019-05-28T19:23:53.834Z,11.50
2019-05-28T19:26:22.928Z,11.50
2019-05-28T19:28:52.284Z,11.50
2019-05-28T19:31:21.658Z,11.40
2019-05-28T19:33:50.854Z,11.50
2019-05-28T19:36:20.405Z,11.50
2019-05-28T19:38:50.449Z,11.40
2019-05-28T19:41:19.513Z,11.40
2019-05-28T19:43:48.818Z,11.50
2019-05-28T19:46:17.878Z,11.50
2019-05-28T19:48:47.180Z,11.50
2019-05-28T19:51:17.871Z,11.40
2019-05-28T19:53:46.942Z,11.40
2019-05-28T19:56:16.096Z,11.40
2019-05-28T19:58:45.159Z,11.30
2019-05-28T20:01:14.165Z,11.30
2019-05-28T20:03:43.234Z,11.20
2019-05-28T20:06:12.227Z,11.30
2019-05-28T20:08:41.213Z,11.30
2019-05-28T20:11:10.301Z,11.30
2019-05-28T20:13:39.243Z,11.20
2019-05-28T20:16:08.318Z,11.20
2019-05-28T20:18:37.321Z,11.20
2019-05-28T20:21:06.487Z,11.10
2019-05-28T20:23:35.626Z,11.10
2019-05-28T20:26:04.786Z,11.10
2019-05-28T20:28:33.805Z,11.20
2019-05-28T20:31:03.685Z,11.20
2019-05-28T20:33:32.975Z,11.10
2019-05-28T20:36:02.095Z,11.10
2019-05-28T20:38:31.260Z,11.10
2019-05-28T20:41:00.255Z,11.20
2019-05-28T20:43:29.278Z,11.20
2019-05-28T20:45:58.348Z,11.10
2019-05-28T20:48:27.514Z,11.20
2019-05-28T20:51:07.437Z,11.20
2019-05-28T20:53:35.585Z,11.20
2019-05-28T20:55:58.684Z,11.20
2019-05-28T20:58:39.938Z,11.10
2019-05-28T21:00:58.702Z,11.00
2019-05-28T21:03:27.802Z,10.80
2019-05-28T21:05:57.189Z,10.70
2019-05-28T21:08:26.227Z,10.50
2019-05-28T21:10:55.237Z,10.50
2019-05-28T21:13:24.335Z,10.40
2019-05-28T21:15:53.407Z,10.30
2019-05-28T21:18:22.454Z,10.30
2019-05-28T21:20:52.137Z,10.30
2019-05-28T21:23:21.609Z,10.30
2019-05-28T21:25:50.647Z,10.20
2019-05-28T21:28:21.015Z,10.20
2019-05-28T21:30:50.564Z,10.30
2019-05-28T21:33:19.800Z,10.20
2019-05-28T21:35:48.722Z,10.20
2019-05-28T21:38:17.719Z,10.10
2019-05-28T21:40:46.630Z,10.10
2019-05-28T21:43:15.648Z,10.10
2019-05-28T21:45:44.716Z,10.10
2019-05-28T21:48:13.762Z,10.10
2019-05-28T21:50:42.852Z,10.00
2019-05-28T21:53:12.042Z,10.00
2019-05-28T21:55:41.143Z,9.90
2019-05-28T21:58:10.151Z,9.90
2019-05-28T22:00:49.546Z,9.90
2019-05-28T22:03:18.695Z,9.80
2019-05-28T22:05:47.683Z,9.80
2019-05-28T22:08:16.619Z,9.80
2019-05-28T22:10:45.627Z,9.80
2019-05-28T22:13:21.913Z,9.80
2019-05-28T22:15:45.449Z,9.80
2019-05-28T22:18:14.670Z,9.80
2019-05-28T22:20:43.783Z,9.70
2019-05-28T22:23:12.835Z,9.80
2019-05-28T22:25:41.867Z,9.80
2019-05-28T22:28:10.955Z,9.80
